Rockport, WA

11:41 AM PDT on September 18, 2014 (GMT -0700)
Diablo Helistop | Change Station
CLOSE
Current Station
Personal Weather Station
Location: Diablo, WA
Elevation: 896 ft
Nearby Weather Stations
4.0 Earthquake: Seabeck, Washington (1 day ago)  

Elev 896 ft 48.71 °N, 121.14 °W | Updated 24 seconds ago

Fog
Fog
62.4 °F
Feels Like 62.4 °F
N
9.0
Wind Variable Wind from NNE
Gusts 17.0 mph

Today
High -- | Low -- °F
--% Chance of Precip.
Yesterday
High -- | Low -- °F
Precip. -- in
6:45 AM 7:10 PM
Waning Crescent, 25% visible
Pressure 29.84 in
Visibility 10.0 miles
Clouds Few 600 ft
Overcast 3300 ft
Dew Point 57 °F
Humidity 83%
Rainfall 0.01 in
Snow Depth 0 in , 0 in , 0 in
UV 1.7 out of 12
Pollen .40 out of 12
PM2.5 Good
Flu Activity Not available.
METAR KAWO 181835Z AUTO 19006KT 10SM FEW006 OVC033 16/14 A2984 RMK AO1

More Conditions Fewer Conditions

Pressure 29.84 in
Visibility 10.0 miles
Clouds Few 600 ft
Overcast 3300 ft
Dew Point 57 °F
Humidity 83%
Rainfall 0.01 in
Snow Depth 0 in , 0 in , 0 in
UV 1.7 out of 12
Pollen .40 out of 12
PM2.5 Good
Flu Activity Not available.
METAR KAWO 181835Z AUTO 19006KT 10SM FEW006 OVC033 16/14 A2984 RMK AO1

More Conditions Fewer Conditions

10-Day Weather Forecast

Almanac

Astronomy

Sep. 18, 2014 Rise Set
Actual Time 6:45 AM PDT 7:10 PM PDT
Civil Twilight 6:14 AM PDT 7:42 PM PDT
Nautical Twilight 5:36 AM PDT 8:19 PM PDT
Astronomical Twilight 4:57 AM PDT 8:58 PM PDT
Moon 1:22 AM PDT 4:22 PM PDT
Length of Visible Light 13h 28m
Length of Day
12h 25m
Tomorrow will be 3m 33s shorter.
Waning Crescent, 25% of the Moon is Illuminated
Today
Waning Crescent
Sep 24
New
Oct 1
First Quarter
Oct 8
Full
Oct 15
Last Quarter

Today's Extremes

State Highs State Lows

Community

WunderPhotos

Upload Photos

1,754,417 photos uploaded!

WunderBlogs® & News

Nearby

Air Quality

  Air Quality AQ Index Pollutant
Yesterday Good
PM2.5
Current Good
PM2.5
Thursday Good
OZONE
Thursday Good
PM2.5
Friday Good
PM2.5
Friday Good
OZONE
Saturday Good
PM2.5
Saturday Good
OZONE
Sunday Good
PM2.5
Sunday Good
OZONE
Monday Good
OZONE
Monday Good
PM2.5
Tuesday Good
OZONE
Tuesday Good
PM2.5

Snow Depth

Station Depth Elevation
Lone Pine 0 in 3800 ft
Stevens Pass 0 in 4070 ft
Alpine Meadows 0 in 3500 ft
Pope Ridge 0 in 3540 ft
Grouse Camp 0 in 5380 ft

Earthquake Activity

City Distance Mag. Time & Date
Seabeck, Washington 117 miles 4.0 3:06 AM PDT
2014-09-17
Minimum magnitude displayed is 2.5.

Coastal Water Temperatures

Place Temperature
No Stations Reporting

Nearby Weather Stations